sensor_id;sensor_type;location;lat;lon;timestamp;pressure;altitude;pressure_sealevel;temperature;humidity
68807;BME280;55800;54.272;18.558;2023-12-28T00:01:18;101028.34;;;1.93;83.08
68807;BME280;55800;54.272;18.558;2023-12-28T00:03:48;101029.22;;;1.92;83.12
68807;BME280;55800;54.272;18.558;2023-12-28T00:06:18;101019.56;;;1.91;83.17
68807;BME280;55800;54.272;18.558;2023-12-28T00:08:49;101010.78;;;1.89;83.33
68807;BME280;55800;54.272;18.558;2023-12-28T00:11:31;101013.41;;;1.90;83.38
68807;BME280;55800;54.272;18.558;2023-12-28T00:14:01;100985.28;;;1.89;83.36
68807;BME280;55800;54.272;18.558;2023-12-28T00:16:31;100976.50;;;1.87;83.37
68807;BME280;55800;54.272;18.558;2023-12-28T00:19:02;100979.16;;;1.89;83.33
68807;BME280;55800;54.272;18.558;2023-12-28T00:21:32;100981.78;;;1.89;83.25
68807;BME280;55800;54.272;18.558;2023-12-28T00:24:03;100985.28;;;1.89;83.30
68807;BME280;55800;54.272;18.558;2023-12-28T00:26:32;100969.47;;;1.88;83.25
68807;BME280;55800;54.272;18.558;2023-12-28T00:29:04;100981.78;;;1.86;83.40
68807;BME280;55800;54.272;18.558;2023-12-28T00:31:33;100972.97;;;1.87;83.29
68807;BME280;55800;54.272;18.558;2023-12-28T00:34:03;100965.06;;;1.87;83.27
68807;BME280;55800;54.272;18.558;2023-12-28T00:36:32;100972.09;;;1.85;83.72
68807;BME280;55800;54.272;18.558;2023-12-28T00:39:03;100971.22;;;1.86;83.41
68807;BME280;55800;54.272;18.558;2023-12-28T00:41:32;100968.59;;;1.86;83.39
68807;BME280;55800;54.272;18.558;2023-12-28T00:44:02;100954.50;;;1.87;83.37
68807;BME280;55800;54.272;18.558;2023-12-28T00:46:33;100958.06;;;1.86;83.35
68807;BME280;55800;54.272;18.558;2023-12-28T00:49:03;100967.69;;;1.87;83.36
68807;BME280;55800;54.272;18.558;2023-12-28T00:51:34;100963.31;;;1.86;83.32
68807;BME280;55800;54.272;18.558;2023-12-28T00:54:06;100959.78;;;1.87;83.43
68807;BME280;55800;54.272;18.558;2023-12-28T00:56:35;100955.41;;;1.86;83.46
68807;BME280;55800;54.272;18.558;2023-12-28T00:59:05;100958.94;;;1.86;83.37
68807;BME280;55800;54.272;18.558;2023-12-28T01:01:34;100947.50;;;1.86;83.48
68807;BME280;55800;54.272;18.558;2023-12-28T01:04:03;100929.91;;;1.85;83.61
68807;BME280;55800;54.272;18.558;2023-12-28T01:06:33;100924.66;;;1.85;83.85
68807;BME280;55800;54.272;18.558;2023-12-28T01:09:02;100912.38;;;1.84;83.67
68807;BME280;55800;54.272;18.558;2023-12-28T01:11:33;100911.47;;;1.85;83.69
68807;BME280;55800;54.272;18.558;2023-12-28T01:14:03;100927.28;;;1.83;83.88
68807;BME280;55800;54.272;18.558;2023-12-28T01:16:32;100926.41;;;1.83;83.61
68807;BME280;55800;54.272;18.558;2023-12-28T01:19:03;100933.47;;;1.82;83.50
68807;BME280;55800;54.272;18.558;2023-12-28T01:21:33;100914.13;;;1.79;83.37
68807;BME280;55800;54.272;18.558;2023-12-28T01:24:03;100902.69;;;1.77;83.50
68807;BME280;55800;54.272;18.558;2023-12-28T01:26:33;100907.09;;;1.78;83.25
68807;BME280;55800;54.272;18.558;2023-12-28T01:29:03;100912.38;;;1.75;83.55
68807;BME280;55800;54.272;18.558;2023-12-28T01:31:32;100904.47;;;1.75;83.26
68807;BME280;55800;54.272;18.558;2023-12-28T01:34:02;100896.59;;;1.72;83.31
68807;BME280;55800;54.272;18.558;2023-12-28T01:36:33;100882.50;;;1.73;83.14
68807;BME280;55800;54.272;18.558;2023-12-28T01:39:03;100872.84;;;1.70;83.01
68807;BME280;55800;54.272;18.558;2023-12-28T01:41:33;100875.50;;;1.69;83.03
68807;BME280;55800;54.272;18.558;2023-12-28T01:44:03;100875.50;;;1.67;83.10
68807;BME280;55800;54.272;18.558;2023-12-28T01:46:32;100846.50;;;1.66;83.16
68807;BME280;55800;54.272;18.558;2023-12-28T01:49:03;100821.03;;;1.65;83.24
68807;BME280;55800;54.272;18.558;2023-12-28T01:51:33;100812.28;;;1.61;83.13
68807;BME280;55800;54.272;18.558;2023-12-28T01:54:04;100799.97;;;1.58;82.87
68807;BME280;55800;54.272;18.558;2023-12-28T01:56:35;100814.03;;;1.57;82.78
68807;BME280;55800;54.272;18.558;2023-12-28T01:59:05;100802.59;;;1.55;83.30
68807;BME280;55800;54.272;18.558;2023-12-28T02:01:34;100797.34;;;1.51;82.99
68807;BME280;55800;54.272;18.558;2023-12-28T02:04:04;100778.03;;;1.49;82.86
68807;BME280;55800;54.272;18.558;2023-12-28T02:06:34;100773.66;;;1.46;82.72
68807;BME280;55800;54.272;18.558;2023-12-28T02:09:03;100786.81;;;1.46;82.77
68807;BME280;55800;54.272;18.558;2023-12-28T02:11:34;100778.03;;;1.44;82.74
68807;BME280;55800;54.272;18.558;2023-12-28T02:14:04;100762.25;;;1.44;83.07
68807;BME280;55800;54.272;18.558;2023-12-28T02:16:37;100764.00;;;1.42;82.69
68807;BME280;55800;54.272;18.558;2023-12-28T02:19:14;100753.47;;;1.41;82.98
68807;BME280;55800;54.272;18.558;2023-12-28T02:21:48;100754.38;;;1.41;82.95
68807;BME280;55800;54.272;18.558;2023-12-28T02:24:18;100743.81;;;1.41;82.99
68807;BME280;55800;54.272;18.558;2023-12-28T02:26:48;100735.03;;;1.41;83.09
68807;BME280;55800;54.272;18.558;2023-12-28T02:29:17;100717.47;;;1.41;83.03
68807;BME280;55800;54.272;18.558;2023-12-28T02:31:50;100704.34;;;1.40;83.43
68807;BME280;55800;54.272;18.558;2023-12-28T02:34:25;100704.31;;;1.41;83.09
68807;BME280;55800;54.272;18.558;2023-12-28T02:36:57;100700.78;;;1.42;83.65
68807;BME280;55800;54.272;18.558;2023-12-28T02:39:30;100692.88;;;1.42;83.28
68807;BME280;55800;54.272;18.558;2023-12-28T02:42:01;100683.25;;;1.41;83.53
68807;BME280;55800;54.272;18.558;2023-12-28T02:44:31;100679.72;;;1.44;83.36
68807;BME280;55800;54.272;18.558;2023-12-28T02:47:00;100678.84;;;1.43;83.51
68807;BME280;55800;54.272;18.558;2023-12-28T02:49:30;100663.91;;;1.44;83.45
68807;BME280;55800;54.272;18.558;2023-12-28T02:51:59;100662.16;;;1.43;83.82
68807;BME280;55800;54.272;18.558;2023-12-28T02:54:29;100669.16;;;1.45;83.67
68807;BME280;55800;54.272;18.558;2023-12-28T02:56:59;100651.59;;;1.44;83.83
68807;BME280;55800;54.272;18.558;2023-12-28T02:59:29;100641.94;;;1.46;83.75
68807;BME280;55800;54.272;18.558;2023-12-28T03:01:58;100632.28;;;1.47;84.12
68807;BME280;55800;54.272;18.558;2023-12-28T03:04:28;100633.16;;;1.47;83.96
68807;BME280;55800;54.272;18.558;2023-12-28T03:06:57;100627.00;;;1.47;84.34
68807;BME280;55800;54.272;18.558;2023-12-28T03:09:26;100620.88;;;1.48;84.23
68807;BME280;55800;54.272;18.558;2023-12-28T03:11:56;100625.25;;;1.47;84.63
68807;BME280;55800;54.272;18.558;2023-12-28T03:14:27;100629.63;;;1.48;84.55
68807;BME280;55800;54.272;18.558;2023-12-28T03:16:56;100627.88;;;1.50;84.44
68807;BME280;55800;54.272;18.558;2023-12-28T03:19:26;100626.13;;;1.52;84.58
68807;BME280;55800;54.272;18.558;2023-12-28T03:21:55;100617.31;;;1.53;84.48
68807;BME280;55800;54.272;18.558;2023-12-28T03:24:24;100617.28;;;1.55;84.93
68807;BME280;55800;54.272;18.558;2023-12-28T03:26:54;100615.53;;;1.55;84.61
68807;BME280;55800;54.272;18.558;2023-12-28T03:29:27;100597.97;;;1.57;84.50
68807;BME280;55800;54.272;18.558;2023-12-28T03:31:57;100591.81;;;1.57;84.58
68807;BME280;55800;54.272;18.558;2023-12-28T03:34:27;100581.28;;;1.58;85.25
68807;BME280;55800;54.272;18.558;2023-12-28T03:36:58;100582.19;;;1.59;84.52
68807;BME280;55800;54.272;18.558;2023-12-28T03:39:28;100577.78;;;1.61;84.51
68807;BME280;55800;54.272;18.558;2023-12-28T03:41:57;100575.13;;;1.61;84.33
68807;BME280;55800;54.272;18.558;2023-12-28T03:44:28;100576.88;;;1.62;84.28
68807;BME280;55800;54.272;18.558;2023-12-28T03:46:57;100561.94;;;1.63;84.29
68807;BME280;55800;54.272;18.558;2023-12-28T03:49:26;100557.56;;;1.63;84.35
68807;BME280;55800;54.272;18.558;2023-12-28T03:51:56;100540.84;;;1.63;84.63
68807;BME280;55800;54.272;18.558;2023-12-28T03:54:26;100535.56;;;1.64;84.23
68807;BME280;55800;54.272;18.558;2023-12-28T03:56:55;100521.53;;;1.65;84.31
68807;BME280;55800;54.272;18.558;2023-12-28T03:59:27;100525.91;;;1.65;84.06
68807;BME280;55800;54.272;18.558;2023-12-28T04:01:56;100527.66;;;1.66;84.25
68807;BME280;55800;54.272;18.558;2023-12-28T04:04:25;100510.06;;;1.68;84.09
68807;BME280;55800;54.272;18.558;2023-12-28T04:06:55;100497.81;;;1.65;84.84
68807;BME280;55800;54.272;18.558;2023-12-28T04:09:25;100485.47;;;1.66;84.58
68807;BME280;55800;54.272;18.558;2023-12-28T04:11:54;100467.09;;;1.63;84.78
68807;BME280;55800;54.272;18.558;2023-12-28T04:14:24;100446.88;;;1.65;84.30
68807;BME280;55800;54.272;18.558;2023-12-28T04:16:55;100435.41;;;1.66;84.02
68807;BME280;55800;54.272;18.558;2023-12-28T04:19:24;100436.31;;;1.65;84.18
68807;BME280;55800;54.272;18.558;2023-12-28T04:21:53;100431.94;;;1.64;83.95
68807;BME280;55800;54.272;18.558;2023-12-28T04:24:24;100425.78;;;1.65;83.96
68807;BME280;55800;54.272;18.558;2023-12-28T04:26:53;100409.09;;;1.64;83.70
68807;BME280;55800;54.272;18.558;2023-12-28T04:29:23;100421.38;;;1.64;84.68
68807;BME280;55800;54.272;18.558;2023-12-28T04:31:53;100411.75;;;1.63;84.17
68807;BME280;55800;54.272;18.558;2023-12-28T04:34:23;100424.03;;;1.62;84.11
68807;BME280;55800;54.272;18.558;2023-12-28T04:36:52;100415.28;;;1.60;84.42
68807;BME280;55800;54.272;18.558;2023-12-28T04:39:22;100386.28;;;1.62;84.89
68807;BME280;55800;54.272;18.558;2023-12-28T04:41:51;100386.31;;;1.60;84.44
68807;BME280;55800;54.272;18.558;2023-12-28T04:44:22;100385.41;;;1.59;84.27
68807;BME280;55800;54.272;18.558;2023-12-28T04:46:51;100374.03;;;1.57;84.31
68807;BME280;55800;54.272;18.558;2023-12-28T04:49:22;100366.13;;;1.57;85.10
68807;BME280;55800;54.272;18.558;2023-12-28T04:51:51;100363.50;;;1.59;85.29
68807;BME280;55800;54.272;18.558;2023-12-28T04:54:21;100357.31;;;1.60;84.50
68807;BME280;55800;54.272;18.558;2023-12-28T04:56:51;100366.13;;;1.57;84.38
68807;BME280;55800;54.272;18.558;2023-12-28T04:59:21;100366.13;;;1.57;84.48
68807;BME280;55800;54.272;18.558;2023-12-28T05:01:50;100358.22;;;1.57;84.27
68807;BME280;55800;54.272;18.558;2023-12-28T05:04:22;100352.06;;;1.58;84.47
68807;BME280;55800;54.272;18.558;2023-12-28T05:06:51;100341.53;;;1.57;84.11
68807;BME280;55800;54.272;18.558;2023-12-28T05:09:21;100325.72;;;1.58;84.37
68807;BME280;55800;54.272;18.558;2023-12-28T05:11:50;100311.69;;;1.56;84.45
68807;BME280;55800;54.272;18.558;2023-12-28T05:14:19;100307.28;;;1.57;84.31
68807;BME280;55800;54.272;18.558;2023-12-28T05:16:49;100302.00;;;1.57;84.29
68807;BME280;55800;54.272;18.558;2023-12-28T05:19:20;100298.50;;;1.58;84.45
68807;BME280;55800;54.272;18.558;2023-12-28T05:21:50;100297.63;;;1.57;84.51
68807;BME280;55800;54.272;18.558;2023-12-28T05:24:19;100292.38;;;1.59;84.75
68807;BME280;55800;54.272;18.558;2023-12-28T05:26:48;100287.94;;;1.59;84.77
68807;BME280;55800;54.272;18.558;2023-12-28T05:29:18;100280.91;;;1.60;84.99
68807;BME280;55800;54.272;18.558;2023-12-28T05:31:47;100255.44;;;1.61;85.30
68807;BME280;55800;54.272;18.558;2023-12-28T05:34:17;100235.25;;;1.61;85.13
68807;BME280;55800;54.272;18.558;2023-12-28T05:36:47;100265.06;;;1.65;86.40
68807;BME280;55800;54.272;18.558;2023-12-28T05:39:17;100261.59;;;1.61;85.33
68807;BME280;55800;54.272;18.558;2023-12-28T05:41:46;100240.50;;;1.63;85.57
68807;BME280;55800;54.272;18.558;2023-12-28T05:44:18;100248.41;;;1.63;85.57
68807;BME280;55800;54.272;18.558;2023-12-28T05:46:48;100280.88;;;1.65;85.53
68807;BME280;55800;54.272;18.558;2023-12-28T05:49:18;100295.72;;;1.72;86.73
68807;BME280;55800;54.272;18.558;2023-12-28T05:51:49;100307.97;;;1.76;85.70
68807;BME280;55800;54.272;18.558;2023-12-28T05:54:18;100307.13;;;1.74;85.56
68807;BME280;55800;54.272;18.558;2023-12-28T05:56:47;100273.75;;;1.73;85.60
68807;BME280;55800;54.272;18.558;2023-12-28T05:59:17;100269.31;;;1.78;86.10
68807;BME280;55800;54.272;18.558;2023-12-28T06:01:46;100277.19;;;1.79;86.20
68807;BME280;55800;54.272;18.558;2023-12-28T06:04:16;100260.50;;;1.79;86.01
68807;BME280;55800;54.272;18.558;2023-12-28T06:06:46;100263.06;;;1.83;86.21
68807;BME280;55800;54.272;18.558;2023-12-28T06:09:16;100264.81;;;1.83;85.61
68807;BME280;55800;54.272;18.558;2023-12-28T06:11:46;100266.59;;;1.84;85.95
68807;BME280;55800;54.272;18.558;2023-12-28T06:14:15;100257.81;;;1.82;86.10
68807;BME280;55800;54.272;18.558;2023-12-28T06:16:44;100265.66;;;1.88;86.30
68807;BME280;55800;54.272;18.558;2023-12-28T06:19:14;100265.66;;;1.88;86.18
68807;BME280;55800;54.272;18.558;2023-12-28T06:21:43;100256.00;;;1.87;86.04
68807;BME280;55800;54.272;18.558;2023-12-28T06:24:13;100265.66;;;1.88;86.55
68807;BME280;55800;54.272;18.558;2023-12-28T06:26:44;100246.31;;;1.90;86.24
68807;BME280;55800;54.272;18.558;2023-12-28T06:29:14;100229.53;;;1.94;86.49
68807;BME280;55800;54.272;18.558;2023-12-28T06:31:43;100217.25;;;1.95;86.16
68807;BME280;55800;54.272;18.558;2023-12-28T06:34:13;100210.19;;;1.97;86.24
68807;BME280;55800;54.272;18.558;2023-12-28T06:36:42;100210.97;;;2.02;86.69
68807;BME280;55800;54.272;18.558;2023-12-28T06:39:12;100210.13;;;2.01;86.56
68807;BME280;55800;54.272;18.558;2023-12-28T06:41:43;100210.91;;;2.06;86.75
68807;BME280;55800;54.272;18.558;2023-12-28T06:44:15;100219.69;;;2.10;86.42
68807;BME280;55800;54.272;18.558;2023-12-28T06:46:44;100216.16;;;2.08;86.50
68807;BME280;55800;54.272;18.558;2023-12-28T06:49:14;100209.94;;;2.13;86.47
68807;BME280;55800;54.272;18.558;2023-12-28T06:51:43;100216.94;;;2.16;86.39
68807;BME280;55800;54.272;18.558;2023-12-28T06:54:14;100223.00;;;2.21;86.41
68807;BME280;55800;54.272;18.558;2023-12-28T06:56:45;100229.16;;;2.21;86.62
68807;BME280;55800;54.272;18.558;2023-12-28T06:59:15;100233.47;;;2.27;86.48
68807;BME280;55800;54.272;18.558;2023-12-28T07:01:44;100236.09;;;2.28;86.67
68807;BME280;55800;54.272;18.558;2023-12-28T07:04:14;100232.59;;;2.28;86.45
68807;BME280;55800;54.272;18.558;2023-12-28T07:06:43;100237.75;;;2.34;86.83
68807;BME280;55800;54.272;18.558;2023-12-28T07:09:13;100235.13;;;2.34;86.53
68807;BME280;55800;54.272;18.558;2023-12-28T07:11:42;100235.94;;;2.37;86.45
68807;BME280;55800;54.272;18.558;2023-12-28T07:14:13;100241.16;;;2.42;86.82
68807;BME280;55800;54.272;18.558;2023-12-28T07:16:42;100234.13;;;2.43;86.66
68807;BME280;55800;54.272;18.558;2023-12-28T07:19:12;100239.31;;;2.47;86.85
68807;BME280;55800;54.272;18.558;2023-12-28T07:21:41;100224.31;;;2.52;86.68
68807;BME280;55800;54.272;18.558;2023-12-28T07:24:10;100232.16;;;2.55;87.09
68807;BME280;55800;54.272;18.558;2023-12-28T07:26:40;100247.13;;;2.56;86.94
68807;BME280;55800;54.272;18.558;2023-12-28T07:29:09;100250.53;;;2.61;87.16
68807;BME280;55800;54.272;18.558;2023-12-28T07:31:40;100255.78;;;2.64;87.24
68807;BME280;55800;54.272;18.558;2023-12-28T07:34:09;100252.19;;;2.68;87.23
68807;BME280;55800;54.272;18.558;2023-12-28T07:36:39;100260.94;;;2.70;87.57
68807;BME280;55800;54.272;18.558;2023-12-28T07:39:11;100248.50;;;2.78;87.11
68807;BME280;55800;54.272;18.558;2023-12-28T07:41:41;100248.38;;;2.84;87.75
68807;BME280;55800;54.272;18.558;2023-12-28T07:44:10;100259.75;;;2.89;87.86
68807;BME280;55800;54.272;18.558;2023-12-28T07:46:41;100244.75;;;2.91;87.72
68807;BME280;55800;54.272;18.558;2023-12-28T07:49:10;100247.38;;;2.93;87.52
68807;BME280;55800;54.272;18.558;2023-12-28T07:51:40;100242.00;;;2.97;87.78
68807;BME280;55800;54.272;18.558;2023-12-28T07:54:09;100244.56;;;3.02;87.74
68807;BME280;55800;54.272;18.558;2023-12-28T07:56:38;100256.88;;;3.04;87.83
68807;BME280;55800;54.272;18.558;2023-12-28T07:59:08;100248.00;;;3.08;88.01
68807;BME280;55800;54.272;18.558;2023-12-28T08:01:39;100242.56;;;3.17;87.97
68807;BME280;55800;54.272;18.558;2023-12-28T08:04:09;100239.06;;;3.15;87.43
68807;BME280;55800;54.272;18.558;2023-12-28T08:06:38;100236.34;;;3.18;87.70
68807;BME280;55800;54.272;18.558;2023-12-28T08:09:08;100233.59;;;3.25;88.01
68807;BME280;55800;54.272;18.558;2023-12-28T08:11:38;100223.78;;;3.31;88.16
68807;BME280;55800;54.272;18.558;2023-12-28T08:14:07;100231.63;;;3.37;88.10
68807;BME280;55800;54.272;18.558;2023-12-28T08:16:36;100243.91;;;3.38;88.19
68807;BME280;55800;54.272;18.558;2023-12-28T08:19:07;100245.50;;;3.47;88.35
68807;BME280;55800;54.272;18.558;2023-12-28T08:21:36;100253.41;;;3.48;88.12
68807;BME280;55800;54.272;18.558;2023-12-28T08:24:06;100247.28;;;3.48;88.47
68807;BME280;55800;54.272;18.558;2023-12-28T08:26:35;100261.25;;;3.53;88.38
68807;BME280;55800;54.272;18.558;2023-12-28T08:29:05;100255.84;;;3.59;88.84
68807;BME280;55800;54.272;18.558;2023-12-28T08:31:34;100267.25;;;3.61;88.60
68807;BME280;55800;54.272;18.558;2023-12-28T08:34:04;100248.72;;;3.64;88.33
68807;BME280;55800;54.272;18.558;2023-12-28T08:36:35;100256.50;;;3.70;88.71
68807;BME280;55800;54.272;18.558;2023-12-28T08:39:05;100265.16;;;3.79;88.71
68807;BME280;55800;54.272;18.558;2023-12-28T08:41:34;100251.84;;;3.82;88.66
68807;BME280;55800;54.272;18.558;2023-12-28T08:44:04;100266.81;;;3.83;88.98
68807;BME280;55800;54.272;18.558;2023-12-28T08:46:33;100277.28;;;3.89;89.61
68807;BME280;55800;54.272;18.558;2023-12-28T08:49:02;100262.28;;;3.90;89.08
68807;BME280;55800;54.272;18.558;2023-12-28T08:51:33;100266.44;;;4.02;89.50
68807;BME280;55800;54.272;18.558;2023-12-28T08:54:03;100273.38;;;4.06;89.04
68807;BME280;55800;54.272;18.558;2023-12-28T08:56:32;100267.97;;;4.13;89.51
68807;BME280;55800;54.272;18.558;2023-12-28T08:59:02;100277.47;;;4.20;89.45
68807;BME280;55800;54.272;18.558;2023-12-28T09:01:31;100278.25;;;4.25;89.55
68807;BME280;55800;54.272;18.558;2023-12-28T09:04:01;100272.88;;;4.30;90.00
68807;BME280;55800;54.272;18.558;2023-12-28T09:06:30;100278.22;;;4.28;89.21
68807;BME280;55800;54.272;18.558;2023-12-28T09:09:01;100277.16;;;4.35;89.78
68807;BME280;55800;54.272;18.558;2023-12-28T09:11:32;100285.09;;;4.37;89.88
68807;BME280;55800;54.272;18.558;2023-12-28T09:14:02;100278.78;;;4.42;90.33
68807;BME280;55800;54.272;18.558;2023-12-28T09:16:31;100265.50;;;4.44;90.08
68807;BME280;55800;54.272;18.558;2023-12-28T09:19:01;100262.75;;;4.48;90.09
68807;BME280;55800;54.272;18.558;2023-12-28T09:21:31;100269.72;;;4.52;90.44
68807;BME280;55800;54.272;18.558;2023-12-28T09:24:01;100274.06;;;4.55;89.72
68807;BME280;55800;54.272;18.558;2023-12-28T09:26:31;100267.72;;;4.62;90.10
68807;BME280;55800;54.272;18.558;2023-12-28T09:29:00;100266.84;;;4.61;90.27
68807;BME280;55800;54.272;18.558;2023-12-28T09:31:30;100268.38;;;4.71;90.82
68807;BME280;55800;54.272;18.558;2023-12-28T09:33:59;100271.69;;;4.80;90.28
68807;BME280;55800;54.272;18.558;2023-12-28T09:36:29;100272.53;;;4.83;90.55
68807;BME280;55800;54.272;18.558;2023-12-28T09:38:59;100278.56;;;4.88;90.77
68807;BME280;55800;54.272;18.558;2023-12-28T09:41:35;100273.16;;;4.93;90.75
68807;BME280;55800;54.272;18.558;2023-12-28T09:44:08;100267.69;;;4.99;90.82
68807;BME280;55800;54.272;18.558;2023-12-28T09:46:42;100271.88;;;5.09;91.00
68807;BME280;55800;54.272;18.558;2023-12-28T09:49:12;100261.19;;;5.12;90.92
68807;BME280;55800;54.272;18.558;2023-12-28T09:51:42;100267.28;;;5.15;91.06
68807;BME280;55800;54.272;18.558;2023-12-28T09:54:11;100252.91;;;5.24;90.68
68807;BME280;55800;54.272;18.558;2023-12-28T09:56:42;100239.66;;;5.24;90.72
68807;BME280;55800;54.272;18.558;2023-12-28T09:59:12;100240.47;;;5.27;90.87
68807;BME280;55800;54.272;18.558;2023-12-28T10:01:45;100250.03;;;5.33;91.21
68807;BME280;55800;54.272;18.558;2023-12-28T10:04:15;100231.22;;;5.42;90.77
68807;BME280;55800;54.272;18.558;2023-12-28T10:06:45;100232.97;;;5.43;90.74
68807;BME280;55800;54.272;18.558;2023-12-28T10:09:15;100238.19;;;5.46;90.86
68807;BME280;55800;54.272;18.558;2023-12-28T10:11:46;100230.94;;;5.52;90.94
68807;BME280;55800;54.272;18.558;2023-12-28T10:14:16;100240.50;;;5.58;90.67
68807;BME280;55800;54.272;18.558;2023-12-28T10:16:46;100240.31;;;5.64;90.85
68807;BME280;55800;54.272;18.558;2023-12-28T10:19:22;100238.53;;;5.66;90.68
68807;BME280;55800;54.272;18.558;2023-12-28T10:21:52;100234.03;;;5.68;90.73
68807;BME280;55800;54.272;18.558;2023-12-28T10:24:21;100234.91;;;5.69;90.78
68807;BME280;55800;54.272;18.558;2023-12-28T10:26:53;100236.53;;;5.74;91.20
68807;BME280;55800;54.272;18.558;2023-12-28T10:29:25;100236.41;;;5.77;90.76
68807;BME280;55800;54.272;18.558;2023-12-28T10:31:55;100238.03;;;5.84;90.98
68807;BME280;55800;54.272;18.558;2023-12-28T10:34:25;100239.78;;;5.85;90.54
68807;BME280;55800;54.272;18.558;2023-12-28T10:36:55;100234.41;;;5.87;90.63
68807;BME280;55800;54.272;18.558;2023-12-28T10:39:26;100234.38;;;5.88;90.58
68807;BME280;55800;54.272;18.558;2023-12-28T10:41:58;100229.84;;;5.92;90.65
68807;BME280;55800;54.272;18.558;2023-12-28T10:44:32;100229.75;;;5.95;90.74
68807;BME280;55800;54.272;18.558;2023-12-28T10:47:06;100226.19;;;5.96;90.78
68807;BME280;55800;54.272;18.558;2023-12-28T10:49:40;100234.06;;;5.99;90.74
68807;BME280;55800;54.272;18.558;2023-12-28T10:52:13;100223.38;;;6.00;90.56
68807;BME280;55800;54.272;18.558;2023-12-28T10:54:50;100228.69;;;6.00;90.53
68807;BME280;55800;54.272;18.558;2023-12-28T10:57:29;100235.66;;;6.04;90.46
68807;BME280;55800;54.272;18.558;2023-12-28T11:00:07;100248.00;;;6.05;90.54
68807;BME280;55800;54.272;18.558;2023-12-28T11:02:42;100242.63;;;6.08;90.48
68807;BME280;55800;54.272;18.558;2023-12-28T11:05:14;100239.16;;;6.06;90.47
68807;BME280;55800;54.272;18.558;2023-12-28T11:07:45;100241.81;;;6.06;90.58
68807;BME280;55800;54.272;18.558;2023-12-28T11:10:18;100244.34;;;6.09;90.45
68807;BME280;55800;54.272;18.558;2023-12-28T11:12:51;100254.88;;;6.12;90.43
68807;BME280;55800;54.272;18.558;2023-12-28T11:15:22;100250.41;;;6.14;90.61
68807;BME280;55800;54.272;18.558;2023-12-28T11:17:52;100240.69;;;6.13;90.77
68807;BME280;55800;54.272;18.558;2023-12-28T11:20:22;100238.00;;;6.15;91.01
68807;BME280;55800;54.272;18.558;2023-12-28T11:22:51;100228.16;;;6.18;90.54
68807;BME280;55800;54.272;18.558;2023-12-28T11:25:21;100230.88;;;6.17;90.71
68807;BME280;55800;54.272;18.558;2023-12-28T11:27:52;100221.09;;;6.17;90.92
68807;BME280;55800;54.272;18.558;2023-12-28T11:30:26;100216.63;;;6.19;90.94
68807;BME280;55800;54.272;18.558;2023-12-28T11:32:57;100211.22;;;6.22;90.70
68807;BME280;55800;54.272;18.558;2023-12-28T11:35:34;100214.63;;;6.26;90.92
68807;BME280;55800;54.272;18.558;2023-12-28T11:38:08;100220.75;;;6.29;90.97
68807;BME280;55800;54.272;18.558;2023-12-28T11:40:41;100224.97;;;6.35;91.13
68807;BME280;55800;54.272;18.558;2023-12-28T11:43:22;100223.00;;;6.42;90.98
68807;BME280;55800;54.272;18.558;2023-12-28T11:45:54;100225.47;;;6.48;91.35
68807;BME280;55800;54.272;18.558;2023-12-28T11:48:24;100215.59;;;6.51;91.27
68807;BME280;55800;54.272;18.558;2023-12-28T11:50:57;100219.09;;;6.53;91.16
68807;BME280;55800;54.272;18.558;2023-12-28T11:53:27;100217.16;;;6.58;91.35
68807;BME280;55800;54.272;18.558;2023-12-28T11:56:03;100203.59;;;6.67;91.22
68807;BME280;55800;54.272;18.558;2023-12-28T11:58:38;100205.28;;;6.70;91.66
68807;BME280;55800;54.272;18.558;2023-12-28T12:01:08;100195.47;;;6.72;91.60
68807;BME280;55800;54.272;18.558;2023-12-28T12:03:37;100197.13;;;6.76;91.26
68807;BME280;55800;54.272;18.558;2023-12-28T12:06:07;100194.34;;;6.79;91.17
68807;BME280;55800;54.272;18.558;2023-12-28T12:08:36;100190.78;;;6.80;91.23
68807;BME280;55800;54.272;18.558;2023-12-28T12:11:06;100192.50;;;6.81;91.23
68807;BME280;55800;54.272;18.558;2023-12-28T12:13:36;100188.72;;;6.88;91.40
68807;BME280;55800;54.272;18.558;2023-12-28T12:16:07;100196.41;;;6.97;91.29
68807;BME280;55800;54.272;18.558;2023-12-28T12:18:36;100191.00;;;6.98;91.22
68807;BME280;55800;54.272;18.558;2023-12-28T12:21:06;100184.72;;;7.01;91.35
68807;BME280;55800;54.272;18.558;2023-12-28T12:23:35;100189.03;;;7.05;91.23
68807;BME280;55800;54.272;18.558;2023-12-28T12:26:06;100188.06;;;7.07;91.25
68807;BME280;55800;54.272;18.558;2023-12-28T12:28:36;100186.09;;;7.13;91.26
68807;BME280;55800;54.272;18.558;2023-12-28T12:31:09;100201.88;;;7.17;91.12
68807;BME280;55800;54.272;18.558;2023-12-28T12:33:40;100191.25;;;7.17;91.36
68807;BME280;55800;54.272;18.558;2023-12-28T12:36:10;100199.88;;;7.24;91.10
68807;BME280;55800;54.272;18.558;2023-12-28T12:38:39;100198.84;;;7.28;91.00
68807;BME280;55800;54.272;18.558;2023-12-28T12:41:10;100194.31;;;7.31;90.66
68807;BME280;55800;54.272;18.558;2023-12-28T12:43:41;100196.16;;;7.29;91.04
68807;BME280;55800;54.272;18.558;2023-12-28T12:46:12;100189.84;;;7.32;90.86
68807;BME280;55800;54.272;18.558;2023-12-28T12:48:41;100186.19;;;7.34;90.97
68807;BME280;55800;54.272;18.558;2023-12-28T12:51:11;100181.69;;;7.36;90.93
68807;BME280;55800;54.272;18.558;2023-12-28T12:53:40;100171.06;;;7.36;90.94
68807;BME280;55800;54.272;18.558;2023-12-28T12:56:10;100162.19;;;7.37;90.96
68807;BME280;55800;54.272;18.558;2023-12-28T12:58:39;100159.59;;;7.36;90.97
68807;BME280;55800;54.272;18.558;2023-12-28T13:01:12;100167.59;;;7.34;91.16
68807;BME280;55800;54.272;18.558;2023-12-28T13:03:41;100176.44;;;7.35;91.07
68807;BME280;55800;54.272;18.558;2023-12-28T13:06:14;100179.03;;;7.36;90.87